sensor_id;sensor_type;location;lat;lon;timestamp;P1;durP1;ratioP1;P2;durP2;ratioP2
26042;SDS011;13818;52.156;5.382;2023-04-01T00:01:14;22.25;;;6.07;;
26042;SDS011;13818;52.156;5.382;2023-04-01T00:03:41;17.30;;;6.82;;
26042;SDS011;13818;52.156;5.382;2023-04-01T00:06:08;22.65;;;6.68;;
26042;SDS011;13818;52.156;5.382;2023-04-01T00:08:37;17.95;;;6.18;;
26042;SDS011;13818;52.156;5.382;2023-04-01T00:11:04;18.90;;;6.30;;
26042;SDS011;13818;52.156;5.382;2023-04-01T00:13:30;24.20;;;7.07;;
26042;SDS011;13818;52.156;5.382;2023-04-01T00:15:58;21.83;;;6.38;;
26042;SDS011;13818;52.156;5.382;2023-04-01T00:18:26;21.67;;;6.63;;
26042;SDS011;13818;52.156;5.382;2023-04-01T00:20:53;22.30;;;7.22;;
26042;SDS011;13818;52.156;5.382;2023-04-01T00:23:20;22.08;;;6.93;;
26042;SDS011;13818;52.156;5.382;2023-04-01T00:25:47;27.27;;;7.82;;
26042;SDS011;13818;52.156;5.382;2023-04-01T00:28:16;21.88;;;7.63;;
26042;SDS011;13818;52.156;5.382;2023-04-01T00:30:43;27.08;;;8.45;;
26042;SDS011;13818;52.156;5.382;2023-04-01T00:33:12;24.05;;;8.25;;
26042;SDS011;13818;52.156;5.382;2023-04-01T00:35:38;26.33;;;7.53;;
26042;SDS011;13818;52.156;5.382;2023-04-01T00:38:07;23.05;;;6.60;;
26042;SDS011;13818;52.156;5.382;2023-04-01T00:40:34;26.95;;;7.75;;
26042;SDS011;13818;52.156;5.382;2023-04-01T00:43:02;15.02;;;6.07;;
26042;SDS011;13818;52.156;5.382;2023-04-01T00:45:31;17.20;;;5.72;;
26042;SDS011;13818;52.156;5.382;2023-04-01T00:48:01;18.92;;;6.50;;
26042;SDS011;13818;52.156;5.382;2023-04-01T00:50:32;23.35;;;7.18;;
26042;SDS011;13818;52.156;5.382;2023-04-01T00:55:28;25.70;;;5.97;;
26042;SDS011;13818;52.156;5.382;2023-04-01T00:57:57;21.10;;;5.75;;
26042;SDS011;13818;52.156;5.382;2023-04-01T01:00:26;21.08;;;6.95;;
26042;SDS011;13818;52.156;5.382;2023-04-01T01:02:52;22.13;;;6.70;;
26042;SDS011;13818;52.156;5.382;2023-04-01T01:05:20;20.02;;;6.47;;
26042;SDS011;13818;52.156;5.382;2023-04-01T01:07:57;17.92;;;6.55;;
26042;SDS011;13818;52.156;5.382;2023-04-01T01:10:30;22.67;;;6.88;;
26042;SDS011;13818;52.156;5.382;2023-04-01T01:13:01;19.13;;;6.22;;
26042;SDS011;13818;52.156;5.382;2023-04-01T01:15:32;14.15;;;5.72;;
26042;SDS011;13818;52.156;5.382;2023-04-01T01:18:08;16.98;;;6.30;;
26042;SDS011;13818;52.156;5.382;2023-04-01T01:20:57;22.15;;;6.00;;
26042;SDS011;13818;52.156;5.382;2023-04-01T01:23:58;18.80;;;5.90;;
26042;SDS011;13818;52.156;5.382;2023-04-01T01:26:50;21.48;;;5.78;;
26042;SDS011;13818;52.156;5.382;2023-04-01T01:32:25;19.05;;;6.20;;
26042;SDS011;13818;52.156;5.382;2023-04-01T01:35:12;21.98;;;5.60;;
26042;SDS011;13818;52.156;5.382;2023-04-01T01:37:45;16.60;;;5.63;;
26042;SDS011;13818;52.156;5.382;2023-04-01T01:40:16;12.85;;;4.80;;
26042;SDS011;13818;52.156;5.382;2023-04-01T01:42:45;11.73;;;4.05;;
26042;SDS011;13818;52.156;5.382;2023-04-01T01:45:14;9.88;;;3.58;;
26042;SDS011;13818;52.156;5.382;2023-04-01T01:47:44;9.85;;;3.15;;
26042;SDS011;13818;52.156;5.382;2023-04-01T01:50:14;6.22;;;2.63;;
26042;SDS011;13818;52.156;5.382;2023-04-01T01:52:42;8.15;;;2.97;;
26042;SDS011;13818;52.156;5.382;2023-04-01T01:55:23;6.25;;;2.33;;
26042;SDS011;13818;52.156;5.382;2023-04-01T01:57:53;13.02;;;3.22;;
26042;SDS011;13818;52.156;5.382;2023-04-01T02:00:22;6.32;;;2.58;;
26042;SDS011;13818;52.156;5.382;2023-04-01T02:02:48;7.90;;;3.10;;
26042;SDS011;13818;52.156;5.382;2023-04-01T02:05:19;5.75;;;2.53;;
26042;SDS011;13818;52.156;5.382;2023-04-01T02:07:48;6.93;;;2.10;;
26042;SDS011;13818;52.156;5.382;2023-04-01T02:10:19;8.10;;;2.53;;
26042;SDS011;13818;52.156;5.382;2023-04-01T02:12:49;5.50;;;2.38;;
26042;SDS011;13818;52.156;5.382;2023-04-01T02:15:18;7.82;;;2.83;;
26042;SDS011;13818;52.156;5.382;2023-04-01T02:17:47;5.82;;;2.80;;
26042;SDS011;13818;52.156;5.382;2023-04-01T02:20:19;4.70;;;2.40;;
26042;SDS011;13818;52.156;5.382;2023-04-01T02:22:50;5.43;;;2.60;;
26042;SDS011;13818;52.156;5.382;2023-04-01T02:25:20;6.28;;;2.47;;
26042;SDS011;13818;52.156;5.382;2023-04-01T02:27:50;7.60;;;2.20;;
26042;SDS011;13818;52.156;5.382;2023-04-01T02:30:17;5.18;;;1.92;;
26042;SDS011;13818;52.156;5.382;2023-04-01T02:32:45;6.45;;;2.22;;
26042;SDS011;13818;52.156;5.382;2023-04-01T02:35:15;4.50;;;1.80;;
26042;SDS011;13818;52.156;5.382;2023-04-01T02:37:45;5.03;;;2.40;;
26042;SDS011;13818;52.156;5.382;2023-04-01T02:40:16;4.78;;;2.40;;
26042;SDS011;13818;52.156;5.382;2023-04-01T02:42:43;8.60;;;1.92;;
26042;SDS011;13818;52.156;5.382;2023-04-01T02:45:10;5.15;;;2.05;;
26042;SDS011;13818;52.156;5.382;2023-04-01T02:47:38;6.43;;;2.75;;
26042;SDS011;13818;52.156;5.382;2023-04-01T02:50:05;7.85;;;2.40;;
26042;SDS011;13818;52.156;5.382;2023-04-01T02:52:32;5.53;;;2.15;;
26042;SDS011;13818;52.156;5.382;2023-04-01T02:55:00;8.07;;;2.30;;
26042;SDS011;13818;52.156;5.382;2023-04-01T02:57:27;4.30;;;2.30;;
26042;SDS011;13818;52.156;5.382;2023-04-01T02:59:54;5.63;;;2.30;;
26042;SDS011;13818;52.156;5.382;2023-04-01T03:02:20;4.00;;;1.98;;
26042;SDS011;13818;52.156;5.382;2023-04-01T03:04:47;4.93;;;2.67;;
26042;SDS011;13818;52.156;5.382;2023-04-01T03:07:13;5.35;;;1.98;;
26042;SDS011;13818;52.156;5.382;2023-04-01T03:09:40;5.07;;;1.90;;
26042;SDS011;13818;52.156;5.382;2023-04-01T03:12:07;3.78;;;1.80;;
26042;SDS011;13818;52.156;5.382;2023-04-01T03:14:34;4.88;;;2.00;;
26042;SDS011;13818;52.156;5.382;2023-04-01T03:17:00;3.83;;;1.48;;
26042;SDS011;13818;52.156;5.382;2023-04-01T03:19:27;5.90;;;2.10;;
26042;SDS011;13818;52.156;5.382;2023-04-01T03:21:53;4.68;;;1.70;;
26042;SDS011;13818;52.156;5.382;2023-04-01T03:24:20;7.53;;;2.60;;
26042;SDS011;13818;52.156;5.382;2023-04-01T03:26:46;7.75;;;2.78;;
26042;SDS011;13818;52.156;5.382;2023-04-01T03:29:14;6.93;;;3.58;;
26042;SDS011;13818;52.156;5.382;2023-04-01T03:31:41;12.27;;;4.60;;
26042;SDS011;13818;52.156;5.382;2023-04-01T03:34:08;16.70;;;4.88;;
26042;SDS011;13818;52.156;5.382;2023-04-01T03:36:35;12.98;;;5.53;;
26042;SDS011;13818;52.156;5.382;2023-04-01T03:39:01;17.05;;;5.78;;
26042;SDS011;13818;52.156;5.382;2023-04-01T03:41:28;12.60;;;5.88;;
26042;SDS011;13818;52.156;5.382;2023-04-01T03:43:55;19.38;;;6.90;;
26042;SDS011;13818;52.156;5.382;2023-04-01T03:46:23;21.90;;;7.90;;
26042;SDS011;13818;52.156;5.382;2023-04-01T03:48:50;21.85;;;7.03;;
26042;SDS011;13818;52.156;5.382;2023-04-01T03:51:16;19.88;;;7.28;;
26042;SDS011;13818;52.156;5.382;2023-04-01T03:53:43;20.95;;;7.50;;
26042;SDS011;13818;52.156;5.382;2023-04-01T03:56:09;22.13;;;8.35;;
26042;SDS011;13818;52.156;5.382;2023-04-01T03:58:36;24.23;;;8.77;;
26042;SDS011;13818;52.156;5.382;2023-04-01T04:01:12;21.30;;;8.48;;
26042;SDS011;13818;52.156;5.382;2023-04-01T04:03:41;24.23;;;8.82;;
26042;SDS011;13818;52.156;5.382;2023-04-01T04:06:10;27.90;;;9.50;;
26042;SDS011;13818;52.156;5.382;2023-04-01T04:08:37;23.88;;;8.35;;
26042;SDS011;13818;52.156;5.382;2023-04-01T04:11:04;22.25;;;7.88;;
26042;SDS011;13818;52.156;5.382;2023-04-01T04:13:31;25.38;;;8.57;;
26042;SDS011;13818;52.156;5.382;2023-04-01T04:15:57;22.85;;;8.13;;
26042;SDS011;13818;52.156;5.382;2023-04-01T04:18:24;23.15;;;7.88;;
26042;SDS011;13818;52.156;5.382;2023-04-01T04:20:52;23.70;;;8.00;;
26042;SDS011;13818;52.156;5.382;2023-04-01T04:23:18;20.65;;;7.50;;
26042;SDS011;13818;52.156;5.382;2023-04-01T04:25:52;18.10;;;6.55;;
26042;SDS011;13818;52.156;5.382;2023-04-01T04:28:20;20.45;;;7.00;;
26042;SDS011;13818;52.156;5.382;2023-04-01T04:30:46;20.98;;;7.10;;
26042;SDS011;13818;52.156;5.382;2023-04-01T04:33:13;17.02;;;6.32;;
26042;SDS011;13818;52.156;5.382;2023-04-01T04:35:39;22.10;;;6.38;;
26042;SDS011;13818;52.156;5.382;2023-04-01T04:38:07;13.75;;;5.28;;
26042;SDS011;13818;52.156;5.382;2023-04-01T04:40:35;11.25;;;4.50;;
26042;SDS011;13818;52.156;5.382;2023-04-01T04:43:02;16.58;;;5.47;;
26042;SDS011;13818;52.156;5.382;2023-04-01T04:45:29;14.60;;;5.05;;
26042;SDS011;13818;52.156;5.382;2023-04-01T04:47:55;11.48;;;4.20;;
26042;SDS011;13818;52.156;5.382;2023-04-01T04:50:22;9.82;;;3.33;;
26042;SDS011;13818;52.156;5.382;2023-04-01T04:52:49;8.88;;;2.92;;
26042;SDS011;13818;52.156;5.382;2023-04-01T04:55:17;8.30;;;3.72;;
26042;SDS011;13818;52.156;5.382;2023-04-01T04:57:44;12.25;;;3.47;;
26042;SDS011;13818;52.156;5.382;2023-04-01T05:00:10;8.80;;;3.03;;
26042;SDS011;13818;52.156;5.382;2023-04-01T05:02:37;10.05;;;3.30;;
26042;SDS011;13818;52.156;5.382;2023-04-01T05:05:04;8.95;;;3.45;;
26042;SDS011;13818;52.156;5.382;2023-04-01T05:07:32;10.35;;;3.47;;
26042;SDS011;13818;52.156;5.382;2023-04-01T05:10:00;10.48;;;3.38;;
26042;SDS011;13818;52.156;5.382;2023-04-01T05:12:27;12.07;;;4.47;;
26042;SDS011;13818;52.156;5.382;2023-04-01T05:14:54;15.25;;;4.68;;
26042;SDS011;13818;52.156;5.382;2023-04-01T05:17:20;15.65;;;4.82;;
26042;SDS011;13818;52.156;5.382;2023-04-01T05:19:47;12.43;;;4.03;;
26042;SDS011;13818;52.156;5.382;2023-04-01T05:22:13;18.10;;;4.90;;
26042;SDS011;13818;52.156;5.382;2023-04-01T05:24:40;13.85;;;4.45;;
26042;SDS011;13818;52.156;5.382;2023-04-01T05:27:06;14.40;;;4.60;;
26042;SDS011;13818;52.156;5.382;2023-04-01T05:29:34;8.85;;;4.03;;
26042;SDS011;13818;52.156;5.382;2023-04-01T05:32:01;14.70;;;5.15;;
26042;SDS011;13818;52.156;5.382;2023-04-01T05:34:27;16.55;;;4.88;;
26042;SDS011;13818;52.156;5.382;2023-04-01T05:36:54;11.93;;;4.57;;
26042;SDS011;13818;52.156;5.382;2023-04-01T05:39:20;12.93;;;3.80;;
26042;SDS011;13818;52.156;5.382;2023-04-01T05:41:47;12.32;;;5.00;;
26042;SDS011;13818;52.156;5.382;2023-04-01T05:44:13;10.65;;;3.22;;
26042;SDS011;13818;52.156;5.382;2023-04-01T05:46:41;11.30;;;3.47;;
26042;SDS011;13818;52.156;5.382;2023-04-01T05:49:07;10.35;;;3.28;;
26042;SDS011;13818;52.156;5.382;2023-04-01T05:51:34;8.05;;;3.10;;
26042;SDS011;13818;52.156;5.382;2023-04-01T05:54:00;12.23;;;3.70;;
26042;SDS011;13818;52.156;5.382;2023-04-01T05:56:27;9.68;;;3.15;;
26042;SDS011;13818;52.156;5.382;2023-04-01T05:58:53;8.65;;;2.35;;
26042;SDS011;13818;52.156;5.382;2023-04-01T06:01:20;11.02;;;3.60;;
26042;SDS011;13818;52.156;5.382;2023-04-01T06:03:48;8.20;;;2.67;;
26042;SDS011;13818;52.156;5.382;2023-04-01T06:06:15;7.95;;;2.85;;
26042;SDS011;13818;52.156;5.382;2023-04-01T06:08:46;10.05;;;3.60;;
26042;SDS011;13818;52.156;5.382;2023-04-01T06:11:16;7.30;;;2.95;;
26042;SDS011;13818;52.156;5.382;2023-04-01T06:13:56;14.30;;;3.58;;
26042;SDS011;13818;52.156;5.382;2023-04-01T06:16:39;9.38;;;3.65;;
26042;SDS011;13818;52.156;5.382;2023-04-01T06:19:22;12.00;;;3.35;;
26042;SDS011;13818;52.156;5.382;2023-04-01T06:22:02;10.52;;;3.88;;
26042;SDS011;13818;52.156;5.382;2023-04-01T06:24:49;12.20;;;4.28;;
26042;SDS011;13818;52.156;5.382;2023-04-01T06:27:32;9.45;;;3.33;;
26042;SDS011;13818;52.156;5.382;2023-04-01T06:30:16;11.02;;;3.80;;
26042;SDS011;13818;52.156;5.382;2023-04-01T06:33:02;11.25;;;3.50;;
26042;SDS011;13818;52.156;5.382;2023-04-01T06:35:52;11.52;;;3.42;;
26042;SDS011;13818;52.156;5.382;2023-04-01T06:41:38;9.85;;;3.45;;
26042;SDS011;13818;52.156;5.382;2023-04-01T06:44:20;8.35;;;2.33;;
26042;SDS011;13818;52.156;5.382;2023-04-01T06:46:52;6.85;;;2.75;;
26042;SDS011;13818;52.156;5.382;2023-04-01T06:49:34;6.47;;;2.40;;
26042;SDS011;13818;52.156;5.382;2023-04-01T06:52:13;7.97;;;2.30;;
26042;SDS011;13818;52.156;5.382;2023-04-01T06:54:49;6.30;;;1.90;;
26042;SDS011;13818;52.156;5.382;2023-04-01T06:57:23;6.35;;;1.92;;
26042;SDS011;13818;52.156;5.382;2023-04-01T06:59:54;5.82;;;1.98;;
26042;SDS011;13818;52.156;5.382;2023-04-01T07:02:24;5.45;;;2.13;;
26042;SDS011;13818;52.156;5.382;2023-04-01T07:04:55;6.90;;;2.72;;
26042;SDS011;13818;52.156;5.382;2023-04-01T07:07:29;6.60;;;2.40;;
26042;SDS011;13818;52.156;5.382;2023-04-01T07:10:02;6.93;;;1.85;;
26042;SDS011;13818;52.156;5.382;2023-04-01T07:12:33;9.18;;;2.88;;
26042;SDS011;13818;52.156;5.382;2023-04-01T07:15:11;6.80;;;2.55;;
26042;SDS011;13818;52.156;5.382;2023-04-01T07:17:41;7.20;;;2.30;;
26042;SDS011;13818;52.156;5.382;2023-04-01T07:20:11;9.47;;;2.93;;
26042;SDS011;13818;52.156;5.382;2023-04-01T07:22:45;8.27;;;2.97;;
26042;SDS011;13818;52.156;5.382;2023-04-01T07:25:15;11.52;;;3.53;;
26042;SDS011;13818;52.156;5.382;2023-04-01T07:27:44;9.20;;;3.25;;
26042;SDS011;13818;52.156;5.382;2023-04-01T07:30:13;8.77;;;3.05;;
26042;SDS011;13818;52.156;5.382;2023-04-01T07:32:42;8.82;;;3.30;;
26042;SDS011;13818;52.156;5.382;2023-04-01T07:35:15;10.32;;;3.58;;
26042;SDS011;13818;52.156;5.382;2023-04-01T07:37:52;11.10;;;3.72;;
26042;SDS011;13818;52.156;5.382;2023-04-01T07:40:32;10.38;;;3.67;;
26042;SDS011;13818;52.156;5.382;2023-04-01T07:43:22;8.80;;;3.07;;
26042;SDS011;13818;52.156;5.382;2023-04-01T07:46:01;8.05;;;3.55;;
26042;SDS011;13818;52.156;5.382;2023-04-01T07:48:36;14.48;;;4.22;;
26042;SDS011;13818;52.156;5.382;2023-04-01T07:51:09;12.85;;;4.47;;
26042;SDS011;13818;52.156;5.382;2023-04-01T07:53:43;11.10;;;3.75;;
26042;SDS011;13818;52.156;5.382;2023-04-01T07:56:15;12.57;;;4.10;;
26042;SDS011;13818;52.156;5.382;2023-04-01T07:58:52;9.63;;;3.88;;
26042;SDS011;13818;52.156;5.382;2023-04-01T08:01:27;12.63;;;4.18;;
26042;SDS011;13818;52.156;5.382;2023-04-01T08:04:06;11.75;;;3.85;;
26042;SDS011;13818;52.156;5.382;2023-04-01T08:06:45;12.35;;;4.47;;
26042;SDS011;13818;52.156;5.382;2023-04-01T08:09:19;12.85;;;4.65;;
26042;SDS011;13818;52.156;5.382;2023-04-01T08:11:57;9.45;;;3.80;;
26042;SDS011;13818;52.156;5.382;2023-04-01T08:14:35;12.40;;;4.25;;
26042;SDS011;13818;52.156;5.382;2023-04-01T08:17:10;13.02;;;4.60;;
26042;SDS011;13818;52.156;5.382;2023-04-01T08:19:46;10.55;;;3.50;;
26042;SDS011;13818;52.156;5.382;2023-04-01T08:22:23;13.20;;;4.45;;
26042;SDS011;13818;52.156;5.382;2023-04-01T08:24:55;15.63;;;4.45;;
26042;SDS011;13818;52.156;5.382;2023-04-01T08:27:28;13.70;;;4.43;;
26042;SDS011;13818;52.156;5.382;2023-04-01T08:30:02;12.65;;;4.22;;
26042;SDS011;13818;52.156;5.382;2023-04-01T08:32:32;16.70;;;5.22;;
26042;SDS011;13818;52.156;5.382;2023-04-01T08:35:07;14.57;;;5.13;;
26042;SDS011;13818;52.156;5.382;2023-04-01T08:37:36;12.23;;;5.07;;
26042;SDS011;13818;52.156;5.382;2023-04-01T08:40:14;13.15;;;4.65;;
26042;SDS011;13818;52.156;5.382;2023-04-01T08:42:57;11.85;;;4.15;;
26042;SDS011;13818;52.156;5.382;2023-04-01T08:45:40;10.50;;;3.97;;
26042;SDS011;13818;52.156;5.382;2023-04-01T08:51:43;12.38;;;4.30;;
26042;SDS011;13818;52.156;5.382;2023-04-01T08:54:46;11.52;;;4.40;;
26042;SDS011;13818;52.156;5.382;2023-04-01T08:57:30;8.25;;;3.47;;
26042;SDS011;13818;52.156;5.382;2023-04-01T09:00:10;12.48;;;4.65;;
26042;SDS011;13818;52.156;5.382;2023-04-01T09:06:04;12.18;;;4.18;;
26042;SDS011;13818;52.156;5.382;2023-04-01T09:08:59;12.63;;;4.13;;
26042;SDS011;13818;52.156;5.382;2023-04-01T09:11:44;9.38;;;3.53;;
26042;SDS011;13818;52.156;5.382;2023-04-01T09:17:30;8.43;;;2.75;;
26042;SDS011;13818;52.156;5.382;2023-04-01T09:20:25;6.22;;;2.83;;
26042;SDS011;13818;52.156;5.382;2023-04-01T09:23:10;7.68;;;3.42;;
26042;SDS011;13818;52.156;5.382;2023-04-01T09:26:03;8.13;;;2.55;;
26042;SDS011;13818;52.156;5.382;2023-04-01T09:28:41;15.45;;;4.10;;
26042;SDS011;13818;52.156;5.382;2023-04-01T09:31:28;9.13;;;3.45;;
26042;SDS011;13818;52.156;5.382;2023-04-01T09:34:21;10.25;;;3.58;;
26042;SDS011;13818;52.156;5.382;2023-04-01T09:36:55;7.95;;;3.10;;
26042;SDS011;13818;52.156;5.382;2023-04-01T09:39:42;9.13;;;3.95;;
26042;SDS011;13818;52.156;5.382;2023-04-01T09:42:28;11.50;;;4.40;;
26042;SDS011;13818;52.156;5.382;2023-04-01T09:45:09;11.32;;;4.55;;
26042;SDS011;13818;52.156;5.382;2023-04-01T09:47:54;14.02;;;5.05;;
26042;SDS011;13818;52.156;5.382;2023-04-01T09:50:37;9.20;;;3.92;;
26042;SDS011;13818;52.156;5.382;2023-04-01T09:53:19;10.55;;;4.60;;
26042;SDS011;13818;52.156;5.382;2023-04-01T09:59:07;15.05;;;4.93;;
26042;SDS011;13818;52.156;5.382;2023-04-01T10:02:28;15.27;;;5.40;;
26042;SDS011;13818;52.156;5.382;2023-04-01T10:08:49;15.07;;;4.82;;
26042;SDS011;13818;52.156;5.382;2023-04-01T10:14:44;10.93;;;4.88;;
26042;SDS011;13818;52.156;5.382;2023-04-01T10:17:46;12.05;;;5.28;;
26042;SDS011;13818;52.156;5.382;2023-04-01T10:20:38;5.82;;;2.45;;
26042;SDS011;13818;52.156;5.382;2023-04-01T10:23:33;9.30;;;4.20;;
26042;SDS011;13818;52.156;5.382;2023-04-01T10:26:26;11.48;;;3.22;;
26042;SDS011;13818;52.156;5.382;2023-04-01T10:29:24;10.85;;;4.60;;
26042;SDS011;13818;52.156;5.382;2023-04-01T10:32:14;13.60;;;5.25;;
26042;SDS011;13818;52.156;5.382;2023-04-01T10:35:20;12.30;;;4.68;;
26042;SDS011;13818;52.156;5.382;2023-04-01T10:40:57;12.00;;;4.28;;
26042;SDS011;13818;52.156;5.382;2023-04-01T10:46:58;9.55;;;3.17;;
26042;SDS011;13818;52.156;5.382;2023-04-01T10:49:48;7.88;;;3.83;;
26042;SDS011;13818;52.156;5.382;2023-04-01T10:55:53;6.95;;;2.63;;
26042;SDS011;13818;52.156;5.382;2023-04-01T10:58:47;9.15;;;3.25;;
26042;SDS011;13818;52.156;5.382;2023-04-01T11:01:48;4.45;;;2.30;;
26042;SDS011;13818;52.156;5.382;2023-04-01T11:07:55;3.28;;;1.02;;
26042;SDS011;13818;52.156;5.382;2023-04-01T11:13:53;3.50;;;1.48;;
26042;SDS011;13818;52.156;5.382;2023-04-01T11:19:59;4.15;;;1.77;;
26042;SDS011;13818;52.156;5.382;2023-04-01T11:28:43;4.97;;;1.67;;
26042;SDS011;13818;52.156;5.382;2023-04-01T11:31:30;4.18;;;1.92;;
26042;SDS011;13818;52.156;5.382;2023-04-01T11:34:07;5.45;;;2.10;;
26042;SDS011;13818;52.156;5.382;2023-04-01T11:36:45;5.10;;;2.13;;
26042;SDS011;13818;52.156;5.382;2023-04-01T11:39:25;3.80;;;1.73;;
26042;SDS011;13818;52.156;5.382;2023-04-01T11:42:01;4.07;;;1.77;;
26042;SDS011;13818;52.156;5.382;2023-04-01T11:44:39;3.92;;;1.95;;
26042;SDS011;13818;52.156;5.382;2023-04-01T11:47:22;5.40;;;2.13;;
26042;SDS011;13818;52.156;5.382;2023-04-01T11:50:10;4.90;;;2.33;;
26042;SDS011;13818;52.156;5.382;2023-04-01T11:53:00;5.78;;;2.13;;
26042;SDS011;13818;52.156;5.382;2023-04-01T11:55:40;4.53;;;2.15;;
26042;SDS011;13818;52.156;5.382;2023-04-01T11:58:24;4.13;;;1.77;;
26042;SDS011;13818;52.156;5.382;2023-04-01T12:01:09;6.32;;;2.83;;
26042;SDS011;13818;52.156;5.382;2023-04-01T12:06:44;6.43;;;2.83;;
26042;SDS011;13818;52.156;5.382;2023-04-01T12:09:19;6.00;;;2.70;;
26042;SDS011;13818;52.156;5.382;2023-04-01T12:11:58;6.20;;;2.67;;
26042;SDS011;13818;52.156;5.382;2023-04-01T12:14:38;8.73;;;3.42;;
26042;SDS011;13818;52.156;5.382;2023-04-01T12:17:25;10.60;;;3.67;;
26042;SDS011;13818;52.156;5.382;2023-04-01T12:19:58;8.93;;;4.07;;
26042;SDS011;13818;52.156;5.382;2023-04-01T12:22:41;10.82;;;4.28;;
26042;SDS011;13818;52.156;5.382;2023-04-01T12:25:33;12.25;;;4.28;;
26042;SDS011;13818;52.156;5.382;2023-04-01T12:28:21;11.85;;;5.15;;
26042;SDS011;13818;52.156;5.382;2023-04-01T12:31:01;13.38;;;5.47;;
26042;SDS011;13818;52.156;5.382;2023-04-01T12:33:36;12.80;;;5.30;;
26042;SDS011;13818;52.156;5.382;2023-04-01T12:36:18;13.57;;;5.10;;
26042;SDS011;13818;52.156;5.382;2023-04-01T12:39:02;15.05;;;6.15;;
26042;SDS011;13818;52.156;5.382;2023-04-01T12:41:52;11.85;;;4.75;;
26042;SDS011;13818;52.156;5.382;2023-04-01T12:44:27;17.65;;;7.43;;
26042;SDS011;13818;52.156;5.382;2023-04-01T12:47:05;18.33;;;7.10;;
26042;SDS011;13818;52.156;5.382;2023-04-01T12:49:53;17.60;;;5.90;;
26042;SDS011;13818;52.156;5.382;2023-04-01T12:52:35;16.92;;;6.07;;
26042;SDS011;13818;52.156;5.382;2023-04-01T12:58:15;18.63;;;6.20;;
26042;SDS011;13818;52.156;5.382;2023-04-01T13:01:13;20.20;;;6.07;;
26042;SDS011;13818;52.156;5.382;2023-04-01T13:04:00;15.85;;;6.35;;
26042;SDS011;13818;52.156;5.382;2023-04-01T13:06:47;11.50;;;4.45;;
26042;SDS011;13818;52.156;5.382;2023-04-01T13:09:24;13.60;;;5.47;;
26042;SDS011;13818;52.156;5.382;2023-04-01T13:12:07;12.82;;;5.28;;
26042;SDS011;13818;52.156;5.382;2023-04-01T13:15:04;8.43;;;3.90;;
26042;SDS011;13818;52.156;5.382;2023-04-01T13:17:40;12.23;;;4.43;;
26042;SDS011;13818;52.156;5.382;2023-04-01T13:20:15;9.40;;;3.45;;
26042;SDS011;13818;52.156;5.382;2023-04-01T13:22:48;10.50;;;4.65;;
26042;SDS011;13818;52.156;5.382;2023-04-01T13:25:26;9.50;;;3.90;;
26042;SDS011;13818;52.156;5.382;2023-04-01T13:28:03;10.02;;;4.00;;
26042;SDS011;13818;52.156;5.382;2023-04-01T13:30:40;12.38;;;4.38;;
26042;SDS011;13818;52.156;5.382;2023-04-01T13:33:17;11.13;;;4.55;;
26042;SDS011;13818;52.156;5.382;2023-04-01T13:35:55;9.80;;;3.72;;
26042;SDS011;13818;52.156;5.382;2023-04-01T13:38:45;10.52;;;4.10;;
26042;SDS011;13818;52.156;5.382;2023-04-01T13:41:36;8.13;;;3.00;;
26042;SDS011;13818;52.156;5.382;2023-04-01T13:44:19;8.55;;;3.30;;
26042;SDS011;13818;52.156;5.382;2023-04-01T13:47:04;8.52;;;3.20;;
26042;SDS011;13818;52.156;5.382;2023-04-01T13:49:50;8.07;;;3.28;;
26042;SDS011;13818;52.156;5.382;2023-04-01T13:52:38;8.43;;;3.35;;
26042;SDS011;13818;52.156;5.382;2023-04-01T13:55:30;8.85;;;4.43;;
26042;SDS011;13818;52.156;5.382;2023-04-01T13:58:27;10.05;;;4.95;;
26042;SDS011;13818;52.156;5.382;2023-04-01T14:01:17;10.13;;;4.13;;
26042;SDS011;13818;52.156;5.382;2023-04-01T14:07:14;8.02;;;3.60;;
26042;SDS011;13818;52.156;5.382;2023-04-01T14:09:51;9.13;;;2.90;;
26042;SDS011;13818;52.156;5.382;2023-04-01T14:12:35;8.35;;;3.30;;
26042;SDS011;13818;52.156;5.382;2023-04-01T14:15:22;8.60;;;3.65;;
26042;SDS011;13818;52.156;5.382;2023-04-01T14:18:06;9.00;;;4.03;;
26042;SDS011;13818;52.156;5.382;2023-04-01T14:20:51;9.30;;;3.38;;
26042;SDS011;13818;52.156;5.382;2023-04-01T14:23:41;11.88;;;3.72;;
26042;SDS011;13818;52.156;5.382;2023-04-01T14:26:20;7.43;;;3.45;;
26042;SDS011;13818;52.156;5.382;2023-04-01T14:29:01;8.88;;;3.95;;
26042;SDS011;13818;52.156;5.382;2023-04-01T14:31:43;6.90;;;3.25;;
26042;SDS011;13818;52.156;5.382;2023-04-01T14:34:25;7.20;;;3.75;;
26042;SDS011;13818;52.156;5.382;2023-04-01T14:37:09;6.90;;;3.47;;
26042;SDS011;13818;52.156;5.382;2023-04-01T14:39:54;8.45;;;3.25;;
26042;SDS011;13818;52.156;5.382;2023-04-01T14:42:38;7.53;;;4.03;;
26042;SDS011;13818;52.156;5.382;2023-04-01T14:45:25;8.00;;;3.33;;
26042;SDS011;13818;52.156;5.382;2023-04-01T14:48:07;6.82;;;3.45;;
26042;SDS011;13818;52.156;5.382;2023-04-01T14:50:44;5.90;;;2.67;;
26042;SDS011;13818;52.156;5.382;2023-04-01T14:53:16;7.38;;;3.25;;
26042;SDS011;13818;52.156;5.382;2023-04-01T14:55:55;5.35;;;2.83;;
26042;SDS011;13818;52.156;5.382;2023-04-01T14:58:23;6.47;;;3.20;;
26042;SDS011;13818;52.156;5.382;2023-04-01T15:00:58;6.43;;;2.67;;
26042;SDS011;13818;52.156;5.382;2023-04-01T15:03:46;6.85;;;3.10;;
26042;SDS011;13818;52.156;5.382;2023-04-01T15:06:27;5.93;;;2.78;;
26042;SDS011;13818;52.156;5.382;2023-04-01T15:09:02;5.93;;;2.78;;
26042;SDS011;13818;52.156;5.382;2023-04-01T15:11:40;5.65;;;2.55;;
26042;SDS011;13818;52.156;5.382;2023-04-01T15:14:23;7.72;;;2.97;;
26042;SDS011;13818;52.156;5.382;2023-04-01T15:16:59;5.13;;;2.55;;
26042;SDS011;13818;52.156;5.382;2023-04-01T15:19:39;4.95;;;2.28;;
26042;SDS011;13818;52.156;5.382;2023-04-01T15:22:25;6.57;;;2.63;;
26042;SDS011;13818;52.156;5.382;2023-04-01T15:25:05;6.28;;;3.13;;
26042;SDS011;13818;52.156;5.382;2023-04-01T15:27:54;7.53;;;2.83;;
26042;SDS011;13818;52.156;5.382;2023-04-01T15:30:30;5.35;;;2.65;;
26042;SDS011;13818;52.156;5.382;2023-04-01T15:33:05;6.05;;;2.80;;
26042;SDS011;13818;52.156;5.382;2023-04-01T15:35:40;7.57;;;3.15;;
26042;SDS011;13818;52.156;5.382;2023-04-01T15:38:16;4.78;;;2.50;;
26042;SDS011;13818;52.156;5.382;2023-04-01T15:40:53;5.72;;;2.65;;
26042;SDS011;13818;52.156;5.382;2023-04-01T15:43:30;5.30;;;2.38;;
26042;SDS011;13818;52.156;5.382;2023-04-01T15:49:11;5.50;;;2.67;;
26042;SDS011;13818;52.156;5.382;2023-04-01T15:51:48;4.63;;;2.10;;
26042;SDS011;13818;52.156;5.382;2023-04-01T15:57:28;4.63;;;2.40;;
26042;SDS011;13818;52.156;5.382;2023-04-01T16:00:13;4.00;;;2.20;;
26042;SDS011;13818;52.156;5.382;2023-04-01T16:02:49;3.83;;;1.83;;
26042;SDS011;13818;52.156;5.382;2023-04-01T16:05:26;4.43;;;1.75;;
26042;SDS011;13818;52.156;5.382;2023-04-01T16:08:09;6.07;;;2.30;;
26042;SDS011;13818;52.156;5.382;2023-04-01T16:11:13;4.60;;;2.05;;
26042;SDS011;13818;52.156;5.382;2023-04-01T16:13:48;4.18;;;2.00;;
26042;SDS011;13818;52.156;5.382;2023-04-01T16:16:28;5.05;;;2.33;;
26042;SDS011;13818;52.156;5.382;2023-04-01T16:19:15;4.28;;;2.15;;
26042;SDS011;13818;52.156;5.382;2023-04-01T16:21:58;4.13;;;2.08;;
26042;SDS011;13818;52.156;5.382;2023-04-01T16:24:30;3.65;;;1.90;;
26042;SDS011;13818;52.156;5.382;2023-04-01T16:27:01;3.67;;;1.55;;
26042;SDS011;13818;52.156;5.382;2023-04-01T16:29:32;4.50;;;1.95;;
26042;SDS011;13818;52.156;5.382;2023-04-01T16:32:21;5.50;;;2.20;;
26042;SDS011;13818;52.156;5.382;2023-04-01T16:37:52;6.07;;;2.17;;
26042;SDS011;13818;52.156;5.382;2023-04-01T16:40:31;4.47;;;2.00;;
26042;SDS011;13818;52.156;5.382;2023-04-01T16:43:18;5.35;;;2.67;;
26042;SDS011;13818;52.156;5.382;2023-04-01T16:45:56;5.35;;;2.70;;